Latest Weather Observations for Mudgee

IDN60801

Issued at 8:05 pm EDT Monday 24 November 2014 (issued every 30 minutes, with the page automatically refreshed every 10 minutes)

About weather observations | Map of weather stations | Latest weather observations for NSW | Other Formats
Station Details ID: 062101 Name: MUDGEE AIRPORT AWS Lat: -32.56 Lon: 149.61 Height: 471.0 m
Data from the previous 72 hours. | See also: Recent months at Mudgee
Date/Time
EDT
Temp
°C
App
Temp
°C
Dew
Point
Rel
Hum
%
Delta-T
°C
Wind Press
QNH
hPa
Press
MSL
hPa
Rain
since 9 am
mm
Dir
 
Spd
km/h
Gust
km/h
Spd
kts
Gust
kts
24/08:00pm 26.8 28.3 18.1 59 5.6 N 7 9 4 5 1011.0 1009.4 0.8
24/07:30pm 28.3 28.8 16.6 49 7.4 NNW 9 11 5 6 1010.4 1008.7 0.6
24/07:00pm 30.2 28.0 14.3 38 9.8 W 19 30 10 16 1009.8 1008.2 0.6
24/06:30pm 29.1 29.9 19.1 54 6.6 N 13 26 7 14 1009.4 1007.8 0.4
24/06:00pm 27.2 29.4 20.5 67 4.5 NNE 9 13 5 7 1008.6 1006.9 0.4
24/05:30pm 26.1 29.1 21.3 75 3.2 NE 7 9 4 5 1008.7 1007.0 0.4
24/05:00pm 24.7 25.9 20.6 78 2.7 N 15 17 8 9 1008.7 1007.0 0.2
24/04:30pm 25.6 26.0 20.6 74 3.3 ENE 19 24 10 13 1008.7 1007.0 0.0
24/04:00pm 27.3 26.9 18.0 56 6.0 NNE 17 24 9 13 1010.0 1008.4 0.0
24/03:30pm 25.0 23.5 19.4 71 3.7 NW 26 39 14 21 1010.4 1008.7 0.0
24/03:20pm 25.9 18.7 16.7 57 5.8 NNW 50 69 27 37 1010.5 1008.8 0.0
24/03:18pm 26.8 18.7 15.5 50 7.0 NNW 52 69 28 37 1010.1 1008.5 0.0
24/03:15pm 32.0 28.3 15.1 36 10.6 NW 28 54 15 29 1009.8 1008.2 0.0
24/03:00pm 34.5 29.7 13.9 29 12.9 W 32 41 17 22 1009.2 1007.6 0.0
24/02:30pm 34.9 29.8 13.1 27 13.4 WNW 32 44 17 24 1010.0 1008.4 0.0
24/02:00pm 34.9 28.7 12.5 25 13.7 NW 37 50 20 27 1010.9 1009.2 0.0
24/01:40pm 34.6 28.5 11.7 25 13.8 NNW 35 54 19 29 1010.9 1009.2 0.0
24/01:38pm 34.5 28.9 12.2 26 13.6 NW 33 43 18 23 1010.9 1009.2 0.0
24/01:30pm 34.3 27.9 13.2 28 13.0 N 39 57 21 31 1010.8 1009.1 0.0
24/01:29pm 34.3 27.9 13.2 28 13.0 N 39 57 21 31 1010.7 1009.0 0.0
24/01:00pm 36.1 29.4 14.7 28 13.6 N 43 54 23 29 1010.9 1009.2 0.0
24/12:50pm 37.0 31.7 14.3 26 14.4 N 35 54 19 29 1011.1 1009.5 0.0
24/12:30pm 36.6 31.4 13.4 25 14.5 N 33 46 18 25 1011.4 1009.8 0.0
24/12:07pm 35.7 30.4 12.6 25 14.2 N 32 50 17 27 1011.7 1010.1 0.0
24/12:00pm 35.5 30.2 13.1 26 13.9 N 33 44 18 24 1011.9 1010.3 0.0
24/11:42am 36.3 32.4 14.3 27 13.9 N 28 46 15 25 1012.1 1010.5 0.0
24/11:30am 36.3 32.7 14.3 27 13.9 N 26 39 14 21 1012.4 1010.8 0.0
24/11:00am 34.4 30.9 13.3 28 13.0 N 24 35 13 19 1013.0 1011.4 0.0
24/10:30am 32.9 32.1 14.0 32 11.7 N 11 24 6 13 1013.4 1011.8 0.0
24/10:00am 30.1 29.9 14.6 39 9.6 SSW 9 11 5 6 1014.0 1012.4 0.0
24/09:30am 28.9 28.9 14.3 40 9.0 S 7 11 4 6 1014.3 1012.7 0.0
24/09:00am 28.3 28.5 14.2 42 8.6 SSW 6 9 3 5 1014.6 1013.1 0.6
24/08:30am 26.5 26.9 16.4 53 6.4 S 9 11 5 6 1014.7 1013.2 0.6
24/08:00am 24.1 24.4 16.1 61 5.0 SSE 9 11 5 6 1014.7 1013.2 0.6
24/07:30am 22.4 24.6 16.4 69 3.7 CALM 0 6 0 3 1014.7 1013.2 0.6
24/07:00am 20.3 22.7 16.9 81 2.1 CALM 0 0 0 0 1014.4 1012.8 0.6
24/06:30am 19.4 20.4 16.4 83 1.8 ENE 6 9 3 5 1014.2 1012.6 0.6
24/06:00am 18.6 19.7 15.5 82 1.9 NNE 4 11 2 6 1014.1 1012.5 0.6
24/05:30am 19.4 19.5 16.6 84 1.7 NE 11 15 6 8 1014.1 1012.5 0.6
24/05:00am 21.2 23.4 16.4 74 3.0 CALM 0 0 0 0 1014.3 1012.7 0.6
24/04:30am 20.4 21.3 16.6 79 2.3 S 7 9 4 5 1014.6 1013.1 0.6
24/04:00am 22.5 23.3 16.3 68 3.8 E 7 9 4 5 1014.9 1013.3 0.6
24/03:30am 21.7 23.2 17.7 78 2.5 NNE 6 9 3 5 1015.3 1013.7 0.6
24/03:00am 23.3 24.3 16.8 67 4.1 ESE 7 9 4 5 1014.9 1013.3 0.6
24/02:30am 23.4 25.5 17.2 68 3.9 S 2 7 1 4 1015.2 1013.6 0.6
24/02:00am 24.1 24.2 16.6 63 4.7 SSE 11 15 6 8 1015.2 1013.6 0.6
24/01:30am 24.1 25.2 16.6 63 4.7 SSE 6 9 3 5 1016.0 1014.4 0.6
24/01:00am 24.2 25.6 17.7 67 4.1 S 7 11 4 6 1016.4 1014.8 0.4
24/12:30am 24.6 26.0 17.3 64 4.6 S 6 11 3 6 1016.5 1015.0 0.4
24/12:00am 24.2 22.9 15.9 59 5.1 N 17 20 9 11 1017.5 1015.9 0.0
 
Date/Time
EDT
Temp
°C
App
Temp
°C
Dew
Point
Rel
Hum
%
Delta-T
°C
Wind Press
QNH
hPa
Press
MSL
hPa
Rain
since 9 am
mm
Dir
 
Spd
km/h
Gust
km/h
Spd
kts
Gust
kts
23/11:53pm 25.6 22.7 15.0 52 6.5 NNE 24 35 13 19 1017.6 1016.0 0.0
23/11:30pm 30.6 27.5 11.5 30 11.3 ENE 19 22 10 12 1016.1 1014.5 0.0
23/11:00pm 30.7 27.7 10.6 29 11.7 S 17 20 9 11 1014.3 1012.7 0.0
23/10:30pm 31.4 30.3 10.7 28 12.1 SE 7 9 4 5 1014.4 1012.8 0.0
23/10:00pm 31.6 28.1 10.3 27 12.4 ENE 19 26 10 14 1014.1 1012.5 0.0
23/09:30pm 30.5 29.7 11.0 30 11.5 ESE 6 7 3 4 1014.6 1013.1 0.0
23/09:00pm 32.3 29.7 9.2 24 13.3 SE 13 17 7 9 1013.7 1012.1 0.0
23/08:30pm 32.4 30.2 9.2 24 13.4 S 11 15 6 8 1012.9 1011.3 0.0
23/08:00pm 33.1 29.9 9.8 24 13.6 SSE 17 20 9 11 1012.5 1010.9 0.0
23/07:30pm 34.1 30.7 10.7 24 13.9 S 19 20 10 11 1012.2 1010.6 0.0
23/07:00pm 30.6 28.2 13.8 35 10.3 NNE 19 20 10 11 1010.6 1008.9 0.0
23/06:30pm 34.3 32.6 12.6 27 13.3 E 13 19 7 10 1010.8 1009.1 0.0
23/06:00pm 34.2 32.5 12.5 27 13.3 S 13 20 7 11 1010.5 1008.8 0.0
23/05:30pm 38.1 36.0 6.0 14 18.1 NW 6 9 3 5 1010.1 1008.5 0.0
23/05:00pm 39.7 35.3 5.0 12 19.4 WNW 17 26 9 14 1010.1 1008.5 0.0
23/04:30pm 38.3 31.5 7.1 15 17.9 NW 32 44 17 24 1010.5 1008.8 0.0
23/04:00pm 39.2 33.1 4.6 12 19.2 WNW 26 43 14 23 1010.6 1008.9 0.0
23/03:30pm 40.9 34.0 4.6 11 20.3 WNW 30 39 16 21 1010.8 1009.1 0.0
23/03:07pm 41.5 35.1 5.1 11 20.5 W 28 46 15 25 1011.2 1009.6 0.0
23/03:00pm 40.5 34.7 4.3 11 20.1 W 24 39 13 21 1011.3 1009.7 0.0
23/02:31pm 39.7 32.6 3.7 11 19.7 WNW 30 50 16 27 1011.6 1010.0 0.0
23/02:30pm 40.4 33.8 4.3 11 20.0 WNW 28 43 15 23 1011.6 1010.0 0.0
23/02:14pm 41.3 34.6 3.6 10 20.8 NW 28 46 15 25 1011.7 1010.1 0.0
23/02:00pm 40.1 34.5 5.3 12 19.6 W 24 37 13 20 1011.9 1010.3 0.0
23/01:30pm 39.9 33.6 3.9 11 19.8 W 26 35 14 19 1012.3 1010.7 0.0
23/01:00pm 39.8 32.6 5.1 12 19.4 WNW 32 54 17 29 1013.0 1011.4 0.0
23/12:56pm 40.6 33.0 5.7 12 19.8 WNW 35 54 19 29 1013.1 1011.5 0.0
23/12:54pm 40.2 31.4 5.4 12 19.6 WNW 41 54 22 29 1013.0 1011.4 0.0
23/12:30pm 39.9 34.9 6.3 13 19.2 NNW 22 35 12 19 1013.3 1011.7 0.0
23/12:00pm 38.7 34.1 6.4 14 18.3 NNW 20 30 11 16 1013.7 1012.1 0.0
23/11:30am 37.2 32.5 5.3 14 17.7 N 19 24 10 13 1014.0 1012.4 0.0
23/11:00am 36.6 33.0 8.4 18 16.3 NNW 17 32 9 17 1014.4 1012.8 0.0
23/10:30am 35.4 32.0 10.4 22 14.8 NNW 19 24 10 13 1014.6 1013.1 0.0
23/10:00am 33.7 29.9 9.0 22 14.3 N 19 22 10 12 1014.7 1013.2 0.0
23/09:30am 31.2 30.4 11.6 30 11.7 NW 7 13 4 7 1015.1 1013.5 0.0
23/09:00am 29.0 28.3 10.2 31 10.8 WNW 4 9 2 5 1015.1 1013.5 0.0
23/08:30am 26.8 26.1 10.1 35 9.5 SSE 4 9 2 5 1014.9 1013.3 0.0
23/08:00am 24.8 24.4 9.9 39 8.4 SE 2 6 1 3 1014.6 1013.1 0.0
23/07:30am 21.2 21.0 9.1 46 6.6 CALM 0 0 0 0 1014.5 1012.9 0.0
23/07:00am 19.3 19.0 8.6 50 5.7 CALM 0 6 0 3 1014.2 1012.6 0.0
23/06:30am 16.6 14.5 8.1 57 4.4 NE 9 13 5 7 1013.8 1012.2 0.0
23/06:00am 16.2 15.7 7.7 57 4.4 CALM 0 0 0 0 1013.8 1012.2 0.0
23/05:30am 16.5 16.0 8.0 57 4.4 CALM 0 6 0 3 1013.5 1011.9 0.0
23/05:00am 16.4 14.4 7.3 55 4.6 NNE 7 11 4 6 1013.0 1011.4 0.0
23/04:30am 16.6 16.2 8.1 57 4.4 CALM 0 0 0 0 1013.0 1011.4 0.0
23/04:00am 17.9 16.2 7.6 51 5.3 S 6 9 3 5 1012.9 1011.3 0.0
23/03:30am 17.1 16.5 7.2 52 5.1 CALM 0 6 0 3 1012.8 1011.2 0.0
23/03:00am 17.4 14.9 6.6 49 5.5 NE 9 13 5 7 1012.8 1011.2 0.0
23/02:30am 20.4 18.7 7.4 43 6.8 SSE 6 11 3 6 1013.0 1011.4 0.0
23/02:00am 18.3 16.4 6.8 47 5.9 NNW 6 13 3 7 1013.2 1011.6 0.0
23/01:30am 20.5 18.2 7.5 43 6.8 SSE 9 11 5 6 1013.5 1011.9 0.0
23/01:00am 19.2 15.9 6.3 43 6.6 NE 13 19 7 10 1013.7 1012.1 0.0
23/12:30am 22.8 21.6 6.6 35 8.5 SSW 2 7 1 4 1013.8 1012.2 0.0
23/12:00am 20.4 17.2 6.7 41 7.1 NE 13 17 7 9 1013.9 1012.3 0.0
 
Date/Time
EDT
Temp
°C
App
Temp
°C
Dew
Point
Rel
Hum
%
Delta-T
°C
Wind Press
QNH
hPa
Press
MSL
hPa
Rain
since 9 am
mm
Dir
 
Spd
km/h
Gust
km/h
Spd
kts
Gust
kts
22/11:30pm 20.1 18.3 7.1 43 6.8 NE 6 9 3 5 1014.1 1012.5 0.0
22/11:00pm 21.4 20.8 7.6 41 7.3 CALM 0 0 0 0 1014.2 1012.6 0.0
22/10:30pm 22.3 21.7 7.3 38 7.9 CALM 0 6 0 3 1014.1 1012.5 0.0
22/10:00pm 23.2 19.7 5.6 32 9.1 NE 13 15 7 8 1013.8 1012.2 0.0
22/09:30pm 25.1 21.7 5.8 29 10.1 NE 13 13 7 7 1013.6 1012.0 0.0
22/09:00pm 28.6 26.3 5.5 23 12.3 ESE 7 11 4 6 1013.2 1011.6 0.0
22/08:30pm 29.3 27.0 4.7 21 13.0 SE 6 9 3 5 1012.8 1011.2 0.0
22/08:00pm 30.7 29.1 4.4 19 13.9 NW 2 6 1 3 1012.2 1010.6 0.0
22/07:30pm 33.0 30.3 3.9 16 15.4 WNW 7 11 4 6 1011.9 1010.3 0.0
22/07:00pm 34.9 30.6 3.5 14 16.8 W 15 20 8 11 1011.4 1009.8 0.0
22/06:30pm 36.0 30.8 3.3 13 17.5 WNW 20 28 11 15 1011.2 1009.6 0.0
22/06:00pm 36.1 30.7 2.2 12 17.8 WNW 20 30 11 16 1011.1 1009.5 0.0
22/05:30pm 36.1 29.5 2.2 12 17.8 WNW 26 35 14 19 1011.1 1009.5 0.0
22/05:00pm 37.0 30.7 4.0 13 17.9 WNW 26 33 14 18 1011.0 1009.4 0.0
22/04:30pm 36.5 33.5 7.5 17 16.6 W 13 20 7 11 1011.3 1009.7 0.0
22/04:00pm 36.4 32.8 8.3 18 16.3 WNW 17 30 9 16 1011.5 1009.9 0.0
22/03:30pm 36.4 29.5 7.4 17 16.5 WNW 33 41 18 22 1011.8 1010.2 0.0
22/03:29pm 36.1 29.4 7.2 17 16.4 WNW 32 41 17 22 1011.8 1010.2 0.0
22/03:00pm 34.5 33.1 9.7 22 14.5 WNW 7 19 4 10 1012.3 1010.7 0.0
22/02:30pm 34.2 29.4 8.8 21 14.7 NW 24 32 13 17 1012.8 1011.2 0.0
22/02:00pm 33.8 28.5 8.4 21 14.5 N 26 35 14 19 1013.0 1011.4 0.0
22/01:30pm 33.0 29.2 9.7 24 13.6 NW 20 33 11 18 1013.5 1011.9 0.0
22/01:00pm 32.2 30.0 10.8 27 12.6 WSW 13 24 7 13 1014.0 1012.4 0.0
22/12:30pm 31.6 29.2 11.4 29 12.0 NNW 15 26 8 14 1014.4 1012.8 0.0
22/12:00pm 30.5 29.7 12.9 34 10.6 N 9 20 5 11 1014.7 1013.2 0.0
22/11:30am 28.7 27.2 13.0 38 9.4 NE 13 22 7 12 1015.0 1013.4 0.0
22/11:00am 27.8 26.7 14.4 43 8.2 ENE 13 22 7 12 1015.5 1013.9 0.0
22/10:30am 26.1 24.1 13.9 47 7.4 NNE 17 24 9 13 1015.9 1014.3 0.0
22/10:00am 25.6 24.5 14.4 50 6.8 ENE 13 20 7 11 1016.1 1014.5 0.0
22/09:30am 24.6 22.3 14.1 52 6.3 NE 19 24 10 13 1016.3 1014.7 0.0
22/09:00am 23.5 22.8 13.1 52 6.1 ESE 9 15 5 8 1016.4 1014.8 0.0
22/08:30am 23.0 21.9 13.2 54 5.8 NE 11 15 6 8 1016.2 1014.6 0.0
22/08:00am 22.4 21.6 12.9 55 5.6 E 9 15 5 8 1015.9 1014.3 0.0
22/07:30am 20.4 19.1 12.6 61 4.5 S 11 15 6 8 1015.6 1014.0 0.0
22/07:00am 18.1 18.8 12.1 68 3.4 CALM 0 0 0 0 1015.4 1013.8 0.0
22/06:30am 16.3 16.6 11.0 71 2.9 CALM 0 6 0 3 1015.0 1013.4 0.0
22/06:00am 15.0 13.9 10.0 72 2.7 NNE 6 9 3 5 1014.6 1013.1 0.0
22/05:30am 17.0 17.2 10.4 65 3.6 CALM 0 0 0 0 1014.0 1012.4 0.0
22/05:00am 17.2 16.2 10.3 64 3.8 E 6 7 3 4 1013.7 1012.1 0.0
22/04:30am 17.9 16.6 10.0 60 4.3 ESE 7 13 4 7 1013.3 1011.7 0.0
22/04:00am 17.5 16.3 9.4 59 4.3 ESE 6 9 3 5 1013.2 1011.6 0.0
22/03:30am 18.4 17.1 10.0 58 4.6 SSE 7 13 4 7 1012.9 1011.3 0.0
22/03:00am 18.8 18.7 9.6 55 5.0 CALM 0 0 0 0 1013.0 1011.4 0.0
22/02:30am 18.0 17.7 8.8 55 4.9 CALM 0 2 0 1 1013.0 1011.4 0.0
22/02:00am 17.4 16.9 9.3 59 4.3 S 2 9 1 5 1013.0 1011.4 0.0
22/01:30am 18.5 18.2 8.7 53 5.2 CALM 0 0 0 0 1013.1 1011.5 0.0
22/01:00am 18.3 15.6 9.1 55 4.9 NE 13 15 7 8 1013.1 1011.5 0.0
22/12:30am 19.2 17.8 8.8 51 5.6 NE 6 7 3 4 1013.2 1011.6 0.0
22/12:00am 18.6 16.5 8.3 51 5.4 NNE 9 11 5 6 1013.3 1011.7 0.0
 
Date/Time
EDT
Temp
°C
App
Temp
°C
Dew
Point
Rel
Hum
%
Delta-T
°C
Wind Press
QNH
hPa
Press
MSL
hPa
Rain
since 9 am
mm
Dir
 
Spd
km/h
Gust
km/h
Spd
kts
Gust
kts
21/11:30pm 19.8 18.5 9.1 50 5.8 ENE 6 7 3 4 1013.3 1011.7 0.0
21/11:00pm 19.1 17.6 8.4 50 5.7 NNE 6 7 3 4 1013.3 1011.7 0.0
21/10:30pm 22.4 21.9 9.2 43 7.2 SSE 2 9 1 5 1013.3 1011.7 0.0
21/10:00pm 22.2 20.8 9.0 43 7.2 ESE 6 6 3 3 1013.2 1011.6 0.0
21/09:30pm 23.5 22.7 8.0 37 8.4 SSE 2 7 1 4 1012.9 1011.3 0.0
21/09:00pm 26.6 25.0 8.1 31 10.2 SSE 6 9 3 5 1012.4 1010.8 0.0
21/08:30pm 26.8 24.5 7.3 29 10.6 SSW 9 11 5 6 1011.9 1010.3 0.0

Other Formats:

Comma delimited format used in spreadsheet applications
http://www.bom.gov.au/fwo/IDN60801/IDN60801.94727.axf

JavaScript Object Notation format (JSON) in row-major order
http://www.bom.gov.au/fwo/IDN60801/IDN60801.94727.json